Terminal Aerodrome Forecast
Issued by NWS Cleveland, OH

Home | Current Version | Previous Version | Text Only | Print | Product List | Glossary Off
Versions: 1 2 3 4 5 6 7 8 9 10 11 12 13 14 15 16 17 18 19 20 21 22 23 24 25 26 27 28 29 30

000
FTUS41 KCLE 160400 AAB
TAFCAK
TAF AMD
KCAK 160423Z 1604/1624 14008KT 5SM BR SCT080 OVC250
     FM160630 15010KT P6SM -SHRA SCT025 OVC080
      TEMPO 1608/1610 5SM -SHRA BR OVC025
     FM161000 16010KT 4SM -RA BR SCT008 OVC015
     FM161400 14010KT 4SM -SHRA BR OVC008
     FM162100 23010KT 5SM -SHRA BR OVC006=

USA.gov is the U.S. government's official web portal to all federal, state and local government web resources and services.